sensor_id;sensor_type;location;lat;lon;timestamp;temperature;humidity
55492;DHT22;41354;52.990;6.878;2022-08-04T00:04:27;18.90;99.90
55492;DHT22;41354;52.990;6.878;2022-08-04T00:07:18;18.80;99.90
55492;DHT22;41354;52.990;6.878;2022-08-04T00:10:00;18.60;99.90
55492;DHT22;41354;52.990;6.878;2022-08-04T00:12:29;18.50;99.90
55492;DHT22;41354;52.990;6.878;2022-08-04T00:14:58;18.40;99.90
55492;DHT22;41354;52.990;6.878;2022-08-04T00:17:29;18.30;99.90
55492;DHT22;41354;52.990;6.878;2022-08-04T00:19:59;18.30;99.90
55492;DHT22;41354;52.990;6.878;2022-08-04T00:22:29;18.30;99.90
55492;DHT22;41354;52.990;6.878;2022-08-04T00:24:57;18.30;99.90
55492;DHT22;41354;52.990;6.878;2022-08-04T00:27:23;18.40;99.90
55492;DHT22;41354;52.990;6.878;2022-08-04T00:29:48;18.40;99.90
55492;DHT22;41354;52.990;6.878;2022-08-04T00:32:16;18.40;99.90
55492;DHT22;41354;52.990;6.878;2022-08-04T00:34:43;18.50;99.90
55492;DHT22;41354;52.990;6.878;2022-08-04T00:37:09;18.50;99.90
55492;DHT22;41354;52.990;6.878;2022-08-04T00:39:35;18.40;99.90
55492;DHT22;41354;52.990;6.878;2022-08-04T00:50:44;18.50;99.90
55492;DHT22;41354;52.990;6.878;2022-08-04T00:53:30;18.50;99.90
55492;DHT22;41354;52.990;6.878;2022-08-04T00:56:23;18.60;99.90
55492;DHT22;41354;52.990;6.878;2022-08-04T00:58:58;18.60;99.90
55492;DHT22;41354;52.990;6.878;2022-08-04T01:09:00;18.50;99.90
55492;DHT22;41354;52.990;6.878;2022-08-04T01:11:52;18.50;99.90
55492;DHT22;41354;52.990;6.878;2022-08-04T01:17:36;18.40;99.90
55492;DHT22;41354;52.990;6.878;2022-08-04T01:20:10;18.50;99.90
55492;DHT22;41354;52.990;6.878;2022-08-04T01:25:16;18.50;99.90
55492;DHT22;41354;52.990;6.878;2022-08-04T01:30:40;18.50;99.90
55492;DHT22;41354;52.990;6.878;2022-08-04T01:33:12;18.50;99.90
55492;DHT22;41354;52.990;6.878;2022-08-04T01:35:51;18.50;99.90
55492;DHT22;41354;52.990;6.878;2022-08-04T01:38:24;18.40;99.90
55492;DHT22;41354;52.990;6.878;2022-08-04T01:40:56;18.40;99.90
55492;DHT22;41354;52.990;6.878;2022-08-04T01:43:22;18.40;99.90
55492;DHT22;41354;52.990;6.878;2022-08-04T01:45:57;18.40;99.90
55492;DHT22;41354;52.990;6.878;2022-08-04T01:48:24;18.40;99.90
55492;DHT22;41354;52.990;6.878;2022-08-04T01:50:52;18.30;99.90
55492;DHT22;41354;52.990;6.878;2022-08-04T01:53:19;18.30;99.90
55492;DHT22;41354;52.990;6.878;2022-08-04T01:55:47;18.30;99.90
55492;DHT22;41354;52.990;6.878;2022-08-04T01:58:17;18.30;99.90
55492;DHT22;41354;52.990;6.878;2022-08-04T02:01:08;18.30;99.90
55492;DHT22;41354;52.990;6.878;2022-08-04T02:03:33;18.30;99.90
55492;DHT22;41354;52.990;6.878;2022-08-04T02:06:40;18.40;99.90
55492;DHT22;41354;52.990;6.878;2022-08-04T02:11:40;18.40;99.90
55492;DHT22;41354;52.990;6.878;2022-08-04T02:17:10;18.50;99.90
55492;DHT22;41354;52.990;6.878;2022-08-04T02:22:30;18.50;99.90
55492;DHT22;41354;52.990;6.878;2022-08-04T02:25:06;18.50;99.90
55492;DHT22;41354;52.990;6.878;2022-08-04T02:27:46;18.50;99.90
55492;DHT22;41354;52.990;6.878;2022-08-04T02:30:16;18.50;99.90
55492;DHT22;41354;52.990;6.878;2022-08-04T02:32:43;18.50;99.90
55492;DHT22;41354;52.990;6.878;2022-08-04T02:35:14;18.50;99.90
55492;DHT22;41354;52.990;6.878;2022-08-04T02:37:46;18.50;99.90
55492;DHT22;41354;52.990;6.878;2022-08-04T02:40:17;18.50;99.90
55492;DHT22;41354;52.990;6.878;2022-08-04T02:42:45;18.50;99.90
55492;DHT22;41354;52.990;6.878;2022-08-04T02:45:11;18.50;99.90
55492;DHT22;41354;52.990;6.878;2022-08-04T02:47:38;18.60;99.90
55492;DHT22;41354;52.990;6.878;2022-08-04T02:50:04;18.50;99.90
55492;DHT22;41354;52.990;6.878;2022-08-04T02:52:33;18.50;99.90
55492;DHT22;41354;52.990;6.878;2022-08-04T02:55:00;18.40;99.90
55492;DHT22;41354;52.990;6.878;2022-08-04T02:57:29;18.40;99.90
55492;DHT22;41354;52.990;6.878;2022-08-04T03:00:08;18.40;99.90
55492;DHT22;41354;52.990;6.878;2022-08-04T03:05:18;18.40;99.90
55492;DHT22;41354;52.990;6.878;2022-08-04T03:13:35;18.40;99.90
55492;DHT22;41354;52.990;6.878;2022-08-04T03:16:26;18.40;99.90
55492;DHT22;41354;52.990;6.878;2022-08-04T03:19:44;18.30;99.90
55492;DHT22;41354;52.990;6.878;2022-08-04T03:23:06;18.30;99.90
55492;DHT22;41354;52.990;6.878;2022-08-04T03:31:03;18.30;99.90
55492;DHT22;41354;52.990;6.878;2022-08-04T03:34:02;18.30;99.90
55492;DHT22;41354;52.990;6.878;2022-08-04T03:39:36;18.30;99.90
55492;DHT22;41354;52.990;6.878;2022-08-04T03:45:29;18.20;99.90
55492;DHT22;41354;52.990;6.878;2022-08-04T03:59:55;18.10;99.90
55492;DHT22;41354;52.990;6.878;2022-08-04T04:08:13;18.20;99.90
55492;DHT22;41354;52.990;6.878;2022-08-04T04:14:17;18.20;99.90
55492;DHT22;41354;52.990;6.878;2022-08-04T04:20:17;18.30;99.90
55492;DHT22;41354;52.990;6.878;2022-08-04T04:23:11;18.30;99.90
55492;DHT22;41354;52.990;6.878;2022-08-04T04:25:53;18.40;99.90
55492;DHT22;41354;52.990;6.878;2022-08-04T04:28:37;18.40;99.90
55492;DHT22;41354;52.990;6.878;2022-08-04T04:33:52;18.50;99.90
55492;DHT22;41354;52.990;6.878;2022-08-04T04:50:48;18.70;99.90
55492;DHT22;41354;52.990;6.878;2022-08-04T04:53:35;18.90;99.90
55492;DHT22;41354;52.990;6.878;2022-08-04T04:56:11;18.90;99.90
55492;DHT22;41354;52.990;6.878;2022-08-04T04:58:39;19.00;99.90
55492;DHT22;41354;52.990;6.878;2022-08-04T05:07:29;19.20;99.90
55492;DHT22;41354;52.990;6.878;2022-08-04T05:12:57;19.20;99.90
55492;DHT22;41354;52.990;6.878;2022-08-04T05:15:29;19.20;99.90
55492;DHT22;41354;52.990;6.878;2022-08-04T05:17:56;19.30;99.90
55492;DHT22;41354;52.990;6.878;2022-08-04T05:20:28;19.40;99.90
55492;DHT22;41354;52.990;6.878;2022-08-04T05:23:07;19.40;99.90
55492;DHT22;41354;52.990;6.878;2022-08-04T05:26:22;19.50;99.90
55492;DHT22;41354;52.990;6.878;2022-08-04T05:28:46;19.70;99.90
55492;DHT22;41354;52.990;6.878;2022-08-04T05:31:13;19.80;99.90
55492;DHT22;41354;52.990;6.878;2022-08-04T05:33:48;19.90;99.90
55492;DHT22;41354;52.990;6.878;2022-08-04T05:36:17;20.00;99.90
55492;DHT22;41354;52.990;6.878;2022-08-04T05:38:45;20.10;99.90
55492;DHT22;41354;52.990;6.878;2022-08-04T05:41:12;20.20;99.90
55492;DHT22;41354;52.990;6.878;2022-08-04T05:43:39;20.20;99.90
55492;DHT22;41354;52.990;6.878;2022-08-04T05:46:08;20.30;99.90
55492;DHT22;41354;52.990;6.878;2022-08-04T05:48:36;20.30;99.90
55492;DHT22;41354;52.990;6.878;2022-08-04T05:51:03;20.40;99.90
55492;DHT22;41354;52.990;6.878;2022-08-04T05:53:30;20.40;99.90
55492;DHT22;41354;52.990;6.878;2022-08-04T05:55:57;20.50;99.90
55492;DHT22;41354;52.990;6.878;2022-08-04T05:58:28;20.60;99.90
55492;DHT22;41354;52.990;6.878;2022-08-04T06:00:54;20.70;99.90
55492;DHT22;41354;52.990;6.878;2022-08-04T06:03:21;20.70;99.90
55492;DHT22;41354;52.990;6.878;2022-08-04T06:05:48;20.80;99.90
55492;DHT22;41354;52.990;6.878;2022-08-04T06:08:14;20.80;99.90
55492;DHT22;41354;52.990;6.878;2022-08-04T06:10:41;20.90;99.90
55492;DHT22;41354;52.990;6.878;2022-08-04T06:13:13;21.00;99.90
55492;DHT22;41354;52.990;6.878;2022-08-04T06:15:41;21.00;99.90
55492;DHT22;41354;52.990;6.878;2022-08-04T06:18:09;21.00;99.90
55492;DHT22;41354;52.990;6.878;2022-08-04T06:20:38;21.00;99.90
55492;DHT22;41354;52.990;6.878;2022-08-04T06:23:08;21.10;99.90
55492;DHT22;41354;52.990;6.878;2022-08-04T06:25:42;21.20;99.90
55492;DHT22;41354;52.990;6.878;2022-08-04T06:28:33;21.30;99.90
55492;DHT22;41354;52.990;6.878;2022-08-04T06:31:01;21.40;99.90
55492;DHT22;41354;52.990;6.878;2022-08-04T06:33:30;21.60;99.90
55492;DHT22;41354;52.990;6.878;2022-08-04T06:36:03;21.70;99.90
55492;DHT22;41354;52.990;6.878;2022-08-04T06:38:31;21.80;99.90
55492;DHT22;41354;52.990;6.878;2022-08-04T06:40:58;22.00;99.90
55492;DHT22;41354;52.990;6.878;2022-08-04T06:43:28;22.10;99.90
55492;DHT22;41354;52.990;6.878;2022-08-04T06:45:56;22.20;99.90
55492;DHT22;41354;52.990;6.878;2022-08-04T06:48:24;22.40;99.90
55492;DHT22;41354;52.990;6.878;2022-08-04T06:50:52;22.50;99.90
55492;DHT22;41354;52.990;6.878;2022-08-04T06:53:17;22.60;99.90
55492;DHT22;41354;52.990;6.878;2022-08-04T06:55:45;22.70;99.90
55492;DHT22;41354;52.990;6.878;2022-08-04T06:58:12;23.00;99.90
55492;DHT22;41354;52.990;6.878;2022-08-04T07:00:39;23.20;99.90
55492;DHT22;41354;52.990;6.878;2022-08-04T07:03:06;23.50;99.90
55492;DHT22;41354;52.990;6.878;2022-08-04T07:05:33;23.80;99.90
55492;DHT22;41354;52.990;6.878;2022-08-04T07:07:59;24.00;99.90
55492;DHT22;41354;52.990;6.878;2022-08-04T07:10:28;24.30;99.90
55492;DHT22;41354;52.990;6.878;2022-08-04T07:12:59;24.60;99.90
55492;DHT22;41354;52.990;6.878;2022-08-04T07:15:25;24.80;99.90
55492;DHT22;41354;52.990;6.878;2022-08-04T07:17:51;25.10;99.90
55492;DHT22;41354;52.990;6.878;2022-08-04T07:20:18;25.30;99.90
55492;DHT22;41354;52.990;6.878;2022-08-04T07:22:45;25.50;99.90
55492;DHT22;41354;52.990;6.878;2022-08-04T07:25:14;25.60;99.90
55492;DHT22;41354;52.990;6.878;2022-08-04T07:27:41;25.60;99.90
55492;DHT22;41354;52.990;6.878;2022-08-04T07:30:08;25.70;99.90
55492;DHT22;41354;52.990;6.878;2022-08-04T07:32:34;25.80;99.90
55492;DHT22;41354;52.990;6.878;2022-08-04T07:35:00;25.90;99.90
55492;DHT22;41354;52.990;6.878;2022-08-04T07:37:26;26.10;99.90
55492;DHT22;41354;52.990;6.878;2022-08-04T07:39:52;26.00;99.90
55492;DHT22;41354;52.990;6.878;2022-08-04T07:42:18;25.90;99.90
55492;DHT22;41354;52.990;6.878;2022-08-04T07:44:45;26.00;99.90
55492;DHT22;41354;52.990;6.878;2022-08-04T07:47:11;26.10;99.90
55492;DHT22;41354;52.990;6.878;2022-08-04T07:49:37;26.40;99.90
55492;DHT22;41354;52.990;6.878;2022-08-04T07:52:03;26.70;99.90
55492;DHT22;41354;52.990;6.878;2022-08-04T07:54:29;27.00;99.90
55492;DHT22;41354;52.990;6.878;2022-08-04T07:56:55;27.20;99.90
55492;DHT22;41354;52.990;6.878;2022-08-04T07:59:20;27.30;99.90
55492;DHT22;41354;52.990;6.878;2022-08-04T08:01:47;27.30;99.90
55492;DHT22;41354;52.990;6.878;2022-08-04T08:04:13;27.20;99.90
55492;DHT22;41354;52.990;6.878;2022-08-04T08:06:40;27.20;99.90
55492;DHT22;41354;52.990;6.878;2022-08-04T08:09:13;27.00;99.90
55492;DHT22;41354;52.990;6.878;2022-08-04T08:11:43;27.00;99.90
55492;DHT22;41354;52.990;6.878;2022-08-04T08:14:09;27.00;99.90
55492;DHT22;41354;52.990;6.878;2022-08-04T08:16:35;27.20;99.90
55492;DHT22;41354;52.990;6.878;2022-08-04T08:19:02;27.30;99.90
55492;DHT22;41354;52.990;6.878;2022-08-04T08:21:28;27.50;99.90
55492;DHT22;41354;52.990;6.878;2022-08-04T08:23:54;27.70;99.90
55492;DHT22;41354;52.990;6.878;2022-08-04T08:26:20;27.80;99.90
55492;DHT22;41354;52.990;6.878;2022-08-04T08:28:46;27.90;99.90
55492;DHT22;41354;52.990;6.878;2022-08-04T08:31:11;28.20;99.90
55492;DHT22;41354;52.990;6.878;2022-08-04T08:33:37;28.50;99.90
55492;DHT22;41354;52.990;6.878;2022-08-04T08:36:17;28.70;99.90
55492;DHT22;41354;52.990;6.878;2022-08-04T08:38:52;28.80;99.90
55492;DHT22;41354;52.990;6.878;2022-08-04T08:41:29;29.00;99.90
55492;DHT22;41354;52.990;6.878;2022-08-04T08:47:26;29.50;99.90
55492;DHT22;41354;52.990;6.878;2022-08-04T08:50:02;29.70;99.40
55492;DHT22;41354;52.990;6.878;2022-08-04T08:52:48;29.70;97.40
55492;DHT22;41354;52.990;6.878;2022-08-04T08:55:32;29.70;98.30
55492;DHT22;41354;52.990;6.878;2022-08-04T09:03:55;30.00;97.00
55492;DHT22;41354;52.990;6.878;2022-08-04T09:06:57;30.10;96.40
55492;DHT22;41354;52.990;6.878;2022-08-04T09:12:45;30.20;96.30
55492;DHT22;41354;52.990;6.878;2022-08-04T09:18:19;30.70;95.30
55492;DHT22;41354;52.990;6.878;2022-08-04T09:23:58;31.20;94.10
55492;DHT22;41354;52.990;6.878;2022-08-04T09:26:43;31.60;90.20
55492;DHT22;41354;52.990;6.878;2022-08-04T09:29:14;31.90;89.60
55492;DHT22;41354;52.990;6.878;2022-08-04T09:31:49;31.90;87.80
55492;DHT22;41354;52.990;6.878;2022-08-04T09:34:31;32.00;86.80
55492;DHT22;41354;52.990;6.878;2022-08-04T09:37:51;31.90;82.00
55492;DHT22;41354;52.990;6.878;2022-08-04T09:40:08;31.90;79.30
55492;DHT22;41354;52.990;6.878;2022-08-04T09:45:37;32.00;77.80
55492;DHT22;41354;52.990;6.878;2022-08-04T09:50:53;32.30;76.70
55492;DHT22;41354;52.990;6.878;2022-08-04T09:54:00;32.50;74.10
55492;DHT22;41354;52.990;6.878;2022-08-04T09:56:37;32.50;73.60
55492;DHT22;41354;52.990;6.878;2022-08-04T10:01:42;32.10;73.40
55492;DHT22;41354;52.990;6.878;2022-08-04T10:04:12;32.10;75.70
55492;DHT22;41354;52.990;6.878;2022-08-04T10:09:33;32.00;72.60
55492;DHT22;41354;52.990;6.878;2022-08-04T10:12:26;31.80;73.60
55492;DHT22;41354;52.990;6.878;2022-08-04T10:15:45;31.50;75.60
55492;DHT22;41354;52.990;6.878;2022-08-04T10:18:16;31.30;76.10
55492;DHT22;41354;52.990;6.878;2022-08-04T10:20:50;31.20;79.60
55492;DHT22;41354;52.990;6.878;2022-08-04T10:23:26;31.00;77.40
55492;DHT22;41354;52.990;6.878;2022-08-04T10:28:25;30.90;80.00
55492;DHT22;41354;52.990;6.878;2022-08-04T10:30:59;31.00;80.30
55492;DHT22;41354;52.990;6.878;2022-08-04T10:33:50;31.30;77.60
55492;DHT22;41354;52.990;6.878;2022-08-04T10:36:22;31.50;81.90
55492;DHT22;41354;52.990;6.878;2022-08-04T10:39:06;31.80;83.30
55492;DHT22;41354;52.990;6.878;2022-08-04T10:47:03;32.30;85.30
55492;DHT22;41354;52.990;6.878;2022-08-04T10:49:36;32.30;82.30
55492;DHT22;41354;52.990;6.878;2022-08-04T10:52:17;32.30;82.20
55492;DHT22;41354;52.990;6.878;2022-08-04T11:00:06;32.00;83.00
55492;DHT22;41354;52.990;6.878;2022-08-04T11:02:38;31.80;87.30
55492;DHT22;41354;52.990;6.878;2022-08-04T11:07:49;32.00;85.50
55492;DHT22;41354;52.990;6.878;2022-08-04T11:10:20;32.10;86.40
55492;DHT22;41354;52.990;6.878;2022-08-04T11:12:51;32.40;87.70
55492;DHT22;41354;52.990;6.878;2022-08-04T11:15:24;32.30;81.70
55492;DHT22;41354;52.990;6.878;2022-08-04T11:17:55;32.10;81.10
55492;DHT22;41354;52.990;6.878;2022-08-04T11:23:05;32.10;77.30
55492;DHT22;41354;52.990;6.878;2022-08-04T11:28:45;32.00;80.50
55492;DHT22;41354;52.990;6.878;2022-08-04T11:31:22;32.10;79.00
55492;DHT22;41354;52.990;6.878;2022-08-04T11:36:51;32.40;75.30
55492;DHT22;41354;52.990;6.878;2022-08-04T11:39:37;32.10;74.20
55492;DHT22;41354;52.990;6.878;2022-08-04T11:42:26;31.60;78.10
55492;DHT22;41354;52.990;6.878;2022-08-04T11:44:59;31.30;77.60
55492;DHT22;41354;52.990;6.878;2022-08-04T11:47:53;31.10;79.20
55492;DHT22;41354;52.990;6.878;2022-08-04T11:50:38;31.10;81.40
55492;DHT22;41354;52.990;6.878;2022-08-04T11:53:06;31.20;84.20
55492;DHT22;41354;52.990;6.878;2022-08-04T11:55:33;31.30;81.90
55492;DHT22;41354;52.990;6.878;2022-08-04T11:58:00;31.50;79.90
55492;DHT22;41354;52.990;6.878;2022-08-04T12:00:28;31.30;77.10
55492;DHT22;41354;52.990;6.878;2022-08-04T12:03:14;31.10;77.20
55492;DHT22;41354;52.990;6.878;2022-08-04T12:05:50;30.70;78.00
55492;DHT22;41354;52.990;6.878;2022-08-04T12:10:53;29.90;79.80
55492;DHT22;41354;52.990;6.878;2022-08-04T12:13:35;29.70;82.30
55492;DHT22;41354;52.990;6.878;2022-08-04T12:18:37;29.10;88.50
55492;DHT22;41354;52.990;6.878;2022-08-04T12:21:13;29.00;89.10
55492;DHT22;41354;52.990;6.878;2022-08-04T12:23:44;28.80;90.80
55492;DHT22;41354;52.990;6.878;2022-08-04T12:26:16;28.50;91.20
55492;DHT22;41354;52.990;6.878;2022-08-04T12:28:47;28.40;92.00
55492;DHT22;41354;52.990;6.878;2022-08-04T12:34:14;28.30;93.30
55492;DHT22;41354;52.990;6.878;2022-08-04T12:36:57;28.30;93.70
55492;DHT22;41354;52.990;6.878;2022-08-04T12:39:26;28.20;94.30
55492;DHT22;41354;52.990;6.878;2022-08-04T12:44:24;27.80;95.70
55492;DHT22;41354;52.990;6.878;2022-08-04T12:46:56;27.70;96.50
55492;DHT22;41354;52.990;6.878;2022-08-04T12:49:24;27.50;97.10
55492;DHT22;41354;52.990;6.878;2022-08-04T12:51:51;27.30;96.60
55492;DHT22;41354;52.990;6.878;2022-08-04T12:54:23;27.10;96.90
55492;DHT22;41354;52.990;6.878;2022-08-04T12:56:49;27.00;97.10
55492;DHT22;41354;52.990;6.878;2022-08-04T12:59:16;27.00;97.70
55492;DHT22;41354;52.990;6.878;2022-08-04T13:01:46;26.80;97.80
55492;DHT22;41354;52.990;6.878;2022-08-04T13:06:41;26.40;99.70
55492;DHT22;41354;52.990;6.878;2022-08-04T13:09:15;26.30;99.50
55492;DHT22;41354;52.990;6.878;2022-08-04T13:11:48;26.20;99.90
55492;DHT22;41354;52.990;6.878;2022-08-04T13:14:15;26.20;99.90
55492;DHT22;41354;52.990;6.878;2022-08-04T13:16:42;26.30;99.90
55492;DHT22;41354;52.990;6.878;2022-08-04T13:19:08;26.30;99.30
55492;DHT22;41354;52.990;6.878;2022-08-04T13:21:39;26.40;99.80
55492;DHT22;41354;52.990;6.878;2022-08-04T13:24:10;26.70;99.90
55492;DHT22;41354;52.990;6.878;2022-08-04T13:26:47;26.80;99.20
55492;DHT22;41354;52.990;6.878;2022-08-04T13:29:13;27.00;98.60
55492;DHT22;41354;52.990;6.878;2022-08-04T13:31:43;27.10;98.60
55492;DHT22;41354;52.990;6.878;2022-08-04T13:34:10;27.10;97.90
55492;DHT22;41354;52.990;6.878;2022-08-04T13:36:36;27.10;97.90
55492;DHT22;41354;52.990;6.878;2022-08-04T13:39:07;27.30;97.50
55492;DHT22;41354;52.990;6.878;2022-08-04T13:41:35;27.60;96.80
55492;DHT22;41354;52.990;6.878;2022-08-04T13:44:04;28.10;96.50
55492;DHT22;41354;52.990;6.878;2022-08-04T13:46:38;28.80;95.30
55492;DHT22;41354;52.990;6.878;2022-08-04T13:49:08;29.00;94.10
55492;DHT22;41354;52.990;6.878;2022-08-04T13:51:35;29.10;92.00
55492;DHT22;41354;52.990;6.878;2022-08-04T13:54:03;29.20;91.90
55492;DHT22;41354;52.990;6.878;2022-08-04T13:56:37;29.70;91.60
55492;DHT22;41354;52.990;6.878;2022-08-04T13:59:05;30.50;89.40
55492;DHT22;41354;52.990;6.878;2022-08-04T14:01:34;31.10;84.20
55492;DHT22;41354;52.990;6.878;2022-08-04T14:04:19;31.40;83.70
55492;DHT22;41354;52.990;6.878;2022-08-04T14:07:03;31.80;79.30
55492;DHT22;41354;52.990;6.878;2022-08-04T14:09:32;32.00;77.80
55492;DHT22;41354;52.990;6.878;2022-08-04T14:12:08;32.00;77.20
55492;DHT22;41354;52.990;6.878;2022-08-04T14:14:36;31.80;74.80
55492;DHT22;41354;52.990;6.878;2022-08-04T14:17:10;32.00;75.50
55492;DHT22;41354;52.990;6.878;2022-08-04T14:25:03;33.20;66.80
55492;DHT22;41354;52.990;6.878;2022-08-04T14:30:34;33.10;64.90
55492;DHT22;41354;52.990;6.878;2022-08-04T14:33:09;33.00;66.20
55492;DHT22;41354;52.990;6.878;2022-08-04T14:35:34;32.90;65.80
55492;DHT22;41354;52.990;6.878;2022-08-04T14:38:07;32.70;63.50
55492;DHT22;41354;52.990;6.878;2022-08-04T14:40:38;32.20;66.50
55492;DHT22;41354;52.990;6.878;2022-08-04T14:43:05;32.20;67.10
55492;DHT22;41354;52.990;6.878;2022-08-04T14:45:37;32.30;66.80
55492;DHT22;41354;52.990;6.878;2022-08-04T14:48:11;32.30;66.00
55492;DHT22;41354;52.990;6.878;2022-08-04T14:50:45;32.30;66.00
55492;DHT22;41354;52.990;6.878;2022-08-04T14:55:41;32.70;65.50
55492;DHT22;41354;52.990;6.878;2022-08-04T14:58:17;32.50;64.80
55492;DHT22;41354;52.990;6.878;2022-08-04T15:00:44;32.00;66.10
55492;DHT22;41354;52.990;6.878;2022-08-04T15:03:10;31.50;66.60
55492;DHT22;41354;52.990;6.878;2022-08-04T15:05:40;31.20;67.10
55492;DHT22;41354;52.990;6.878;2022-08-04T15:08:05;31.00;67.90
55492;DHT22;41354;52.990;6.878;2022-08-04T15:10:31;30.80;68.50
55492;DHT22;41354;52.990;6.878;2022-08-04T15:12:57;30.60;69.90
55492;DHT22;41354;52.990;6.878;2022-08-04T15:15:23;30.40;70.20
55492;DHT22;41354;52.990;6.878;2022-08-04T15:17:51;30.40;70.00
55492;DHT22;41354;52.990;6.878;2022-08-04T15:20:17;30.40;69.40
55492;DHT22;41354;52.990;6.878;2022-08-04T15:22:42;30.20;69.90
55492;DHT22;41354;52.990;6.878;2022-08-04T15:25:08;30.10;71.40
55492;DHT22;41354;52.990;6.878;2022-08-04T15:27:38;30.10;70.40
55492;DHT22;41354;52.990;6.878;2022-08-04T15:30:11;30.20;70.90
55492;DHT22;41354;52.990;6.878;2022-08-04T15:32:38;30.00;70.00
55492;DHT22;41354;52.990;6.878;2022-08-04T15:35:16;29.70;72.50
55492;DHT22;41354;52.990;6.878;2022-08-04T15:37:59;29.30;73.90
55492;DHT22;41354;52.990;6.878;2022-08-04T15:40:42;28.90;75.50
55492;DHT22;41354;52.990;6.878;2022-08-04T15:43:20;28.50;77.50
55492;DHT22;41354;52.990;6.878;2022-08-04T15:45:50;28.40;79.90
55492;DHT22;41354;52.990;6.878;2022-08-04T15:58:53;28.90;88.40
55492;DHT22;41354;52.990;6.878;2022-08-04T16:01:19;28.40;89.80
55492;DHT22;41354;52.990;6.878;2022-08-04T16:03:47;27.80;90.10
55492;DHT22;41354;52.990;6.878;2022-08-04T16:18:52;26.50;90.30
55492;DHT22;41354;52.990;6.878;2022-08-04T16:21:24;26.30;90.00
55492;DHT22;41354;52.990;6.878;2022-08-04T16:23:54;26.10;90.30
55492;DHT22;41354;52.990;6.878;2022-08-04T16:26:41;26.00;90.80
55492;DHT22;41354;52.990;6.878;2022-08-04T16:34:35;25.70;89.50
55492;DHT22;41354;52.990;6.878;2022-08-04T16:37:03;25.60;89.50
55492;DHT22;41354;52.990;6.878;2022-08-04T16:39:29;25.60;90.40
55492;DHT22;41354;52.990;6.878;2022-08-04T16:41:56;25.50;91.20
55492;DHT22;41354;52.990;6.878;2022-08-04T16:44:35;25.40;92.40
55492;DHT22;41354;52.990;6.878;2022-08-04T16:47:04;25.40;93.70
55492;DHT22;41354;52.990;6.878;2022-08-04T16:49:31;25.50;93.70
55492;DHT22;41354;52.990;6.878;2022-08-04T16:52:04;25.70;94.20
55492;DHT22;41354;52.990;6.878;2022-08-04T16:54:31;25.70;94.20
55492;DHT22;41354;52.990;6.878;2022-08-04T16:56:58;25.60;95.20
55492;DHT22;41354;52.990;6.878;2022-08-04T16:59:24;25.40;95.70
55492;DHT22;41354;52.990;6.878;2022-08-04T17:01:52;25.30;96.30
55492;DHT22;41354;52.990;6.878;2022-08-04T17:04:27;25.20;96.90
55492;DHT22;41354;52.990;6.878;2022-08-04T17:06:59;25.20;97.30
55492;DHT22;41354;52.990;6.878;2022-08-04T17:09:25;25.10;97.70
55492;DHT22;41354;52.990;6.878;2022-08-04T17:11:51;25.00;97.70
55492;DHT22;41354;52.990;6.878;2022-08-04T17:14:22;25.00;97.70
55492;DHT22;41354;52.990;6.878;2022-08-04T17:16:47;25.00;98.20
55492;DHT22;41354;52.990;6.878;2022-08-04T17:19:13;24.80;99.00
55492;DHT22;41354;52.990;6.878;2022-08-04T17:21:39;24.80;99.70
55492;DHT22;41354;52.990;6.878;2022-08-04T17:24:05;24.70;99.90
55492;DHT22;41354;52.990;6.878;2022-08-04T17:26:33;24.60;99.90
55492;DHT22;41354;52.990;6.878;2022-08-04T17:28:59;24.40;99.90
55492;DHT22;41354;52.990;6.878;2022-08-04T17:31:27;24.30;99.90
55492;DHT22;41354;52.990;6.878;2022-08-04T17:33:56;24.20;99.90
55492;DHT22;41354;52.990;6.878;2022-08-04T17:36:23;24.20;99.90
55492;DHT22;41354;52.990;6.878;2022-08-04T17:38:52;24.20;99.90
55492;DHT22;41354;52.990;6.878;2022-08-04T17:41:22;24.20;99.90
55492;DHT22;41354;52.990;6.878;2022-08-04T17:43:56;24.20;99.90
55492;DHT22;41354;52.990;6.878;2022-08-04T17:51:58;24.00;99.90
55492;DHT22;41354;52.990;6.878;2022-08-04T17:56:53;24.00;99.90
55492;DHT22;41354;52.990;6.878;2022-08-04T17:59:24;23.90;99.90
55492;DHT22;41354;52.990;6.878;2022-08-04T18:07:11;24.00;99.90
55492;DHT22;41354;52.990;6.878;2022-08-04T18:12:24;23.90;99.90
55492;DHT22;41354;52.990;6.878;2022-08-04T18:14:58;23.70;99.90
55492;DHT22;41354;52.990;6.878;2022-08-04T18:17:39;23.40;99.90
55492;DHT22;41354;52.990;6.878;2022-08-04T18:20:14;23.20;99.90
55492;DHT22;41354;52.990;6.878;2022-08-04T18:22:41;22.90;99.90
55492;DHT22;41354;52.990;6.878;2022-08-04T18:25:11;22.70;99.90
55492;DHT22;41354;52.990;6.878;2022-08-04T18:27:54;22.60;99.90
55492;DHT22;41354;52.990;6.878;2022-08-04T18:30:24;22.50;99.90
55492;DHT22;41354;52.990;6.878;2022-08-04T18:32:51;22.40;99.90
55492;DHT22;41354;52.990;6.878;2022-08-04T18:35:19;22.30;99.90
55492;DHT22;41354;52.990;6.878;2022-08-04T18:37:45;22.30;99.90
55492;DHT22;41354;52.990;6.878;2022-08-04T18:40:11;22.20;99.90
55492;DHT22;41354;52.990;6.878;2022-08-04T18:42:38;22.10;99.90
55492;DHT22;41354;52.990;6.878;2022-08-04T18:45:04;22.10;99.90
55492;DHT22;41354;52.990;6.878;2022-08-04T18:47:30;22.00;99.90
55492;DHT22;41354;52.990;6.878;2022-08-04T18:49:56;21.90;99.90
55492;DHT22;41354;52.990;6.878;2022-08-04T18:52:22;21.80;99.90
55492;DHT22;41354;52.990;6.878;2022-08-04T18:54:48;21.70;99.90
55492;DHT22;41354;52.990;6.878;2022-08-04T18:57:21;21.60;99.90
55492;DHT22;41354;52.990;6.878;2022-08-04T18:59:47;21.50;99.90
55492;DHT22;41354;52.990;6.878;2022-08-04T19:02:12;21.40;99.90
55492;DHT22;41354;52.990;6.878;2022-08-04T19:04:39;21.30;99.90
55492;DHT22;41354;52.990;6.878;2022-08-04T19:07:05;21.20;99.90
55492;DHT22;41354;52.990;6.878;2022-08-04T19:09:31;21.10;99.90
55492;DHT22;41354;52.990;6.878;2022-08-04T19:11:57;21.00;99.90
55492;DHT22;41354;52.990;6.878;2022-08-04T19:14:23;21.00;99.90
55492;DHT22;41354;52.990;6.878;2022-08-04T19:16:49;20.90;99.90
55492;DHT22;41354;52.990;6.878;2022-08-04T19:19:14;20.90;99.90
55492;DHT22;41354;52.990;6.878;2022-08-04T19:21:42;20.90;99.90
55492;DHT22;41354;52.990;6.878;2022-08-04T19:24:07;20.90;99.90
55492;DHT22;41354;52.990;6.878;2022-08-04T19:26:35;20.90;99.90
55492;DHT22;41354;52.990;6.878;2022-08-04T19:29:00;20.90;99.90
55492;DHT22;41354;52.990;6.878;2022-08-04T19:31:26;20.80;99.90
55492;DHT22;41354;52.990;6.878;2022-08-04T19:33:52;20.70;99.90
55492;DHT22;41354;52.990;6.878;2022-08-04T19:36:18;20.60;99.90
55492;DHT22;41354;52.990;6.878;2022-08-04T19:38:57;20.50;99.90
55492;DHT22;41354;52.990;6.878;2022-08-04T19:41:23;20.40;99.90
55492;DHT22;41354;52.990;6.878;2022-08-04T19:43:49;20.40;99.90
55492;DHT22;41354;52.990;6.878;2022-08-04T19:46:15;20.30;99.90
55492;DHT22;41354;52.990;6.878;2022-08-04T19:48:41;20.20;99.90